Time;durP1;ratioP1;P1;durP2;ratioP2;P2;SDS_P1;SDS_P2;PMS_P1;PMS_P2;Temp;Humidity;BMP_temperature;BMP_pressure;BME280_temperature;BME280_humidity;BME280_pressure;Samples;Min_cycle;Max_cycle;Signal;HPM_P1;HPM_P2
2021/04/26 00:00:21;;;;;;;0.57;0.40;;;;;;;1.10;65.59;101826.97;5054773;28;20442;-70
2021/04/26 00:02:47;;;;;;;0.40;0.40;;;;;;;1.02;66.52;101829.88;5054438;28;20482;-70
2021/04/26 00:05:15;;;;;;;0.40;0.30;;;;;;;0.95;66.24;101823.72;5054525;28;20462;-70
2021/04/26 00:07:41;;;;;;;2.27;1.50;;;;;;;1.04;64.38;101825.13;5054782;28;20446;-70
2021/04/26 00:10:08;;;;;;;0.40;0.37;;;;;;;0.88;66.18;101829.03;5054763;28;20795;-71
2021/04/26 00:12:35;;;;;;;1.20;0.83;;;;;;;0.94;65.79;101830.88;5054554;28;20466;-72
2021/04/26 00:15:02;;;;;;;0.40;0.30;;;;;;;0.82;66.60;101829.03;5054481;28;20469;-71
2021/04/26 00:17:27;;;;;;;0.60;0.40;;;;;;;0.86;66.80;101825.75;5054476;28;20552;-72
2021/04/26 00:19:53;;;;;;;1.00;0.90;;;;;;;0.75;66.57;101824.53;5054350;28;20446;-70
2021/04/26 00:22:19;;;;;;;0.40;0.30;;;;;;;0.83;65.56;101818.16;5054678;28;20453;-71
2021/04/26 00:24:45;;;;;;;0.87;0.67;;;;;;;0.79;65.18;101813.44;5054491;28;20984;-71
2021/04/26 00:27:11;;;;;;;0.50;0.47;;;;;;;0.69;65.63;101814.69;5054787;28;20442;-71
2021/04/26 00:29:37;;;;;;;0.77;0.43;;;;;;;0.49;66.36;101804.03;5054629;28;20438;-71
2021/04/26 00:32:04;;;;;;;0.67;0.67;;;;;;;0.46;66.88;101808.94;5054374;28;20487;-71
2021/04/26 00:34:30;;;;;;;0.40;0.30;;;;;;;0.56;66.96;101804.00;5054376;28;20445;-71
2021/04/26 00:36:56;;;;;;;0.47;0.40;;;;;;;0.70;67.70;101805.66;5054180;28;20442;-71
2021/04/26 00:39:22;;;;;;;0.97;0.77;;;;;;;0.79;67.37;101808.94;5054148;28;20472;-71
2021/04/26 00:41:48;;;;;;;0.80;0.50;;;;;;;0.82;67.34;101811.19;5054248;28;20446;-71
2021/04/26 00:44:14;;;;;;;0.83;0.83;;;;;;;0.79;68.13;101803.59;5053705;28;21030;-71
2021/04/26 00:46:40;;;;;;;0.40;0.30;;;;;;;0.79;68.00;101802.78;5054058;28;20458;-71
2021/04/26 00:49:06;;;;;;;1.03;0.93;;;;;;;0.70;68.58;101799.50;5053597;28;20434;-71
2021/04/26 00:51:32;;;;;;;0.40;0.30;;;;;;;0.79;67.70;101800.13;5054026;28;20493;-71
2021/04/26 00:53:58;;;;;;;0.47;0.47;;;;;;;0.75;67.53;101794.38;5053848;28;20545;-71
2021/04/26 00:56:24;;;;;;;0.50;0.40;;;;;;;0.77;67.08;101783.50;5053504;28;20484;-71
2021/04/26 00:58:50;;;;;;;0.80;0.47;;;;;;;0.88;66.39;101786.34;5053775;28;20543;-71
2021/04/26 01:01:17;;;;;;;0.80;0.67;;;;;;;0.89;66.00;101788.03;5053774;28;20468;-71
2021/04/26 01:03:43;;;;;;;0.77;0.77;;;;;;;0.91;65.36;101793.13;5053623;28;20470;-71
2021/04/26 01:06:10;;;;;;;0.57;0.57;;;;;;;0.74;66.01;101788.22;5054001;28;20496;-70
2021/04/26 01:08:37;;;;;;;0.50;0.50;;;;;;;0.64;66.21;101785.16;5053751;28;20442;-71
2021/04/26 01:11:03;;;;;;;0.40;0.30;;;;;;;0.42;65.60;101775.72;5053738;28;20447;-71
2021/04/26 01:13:39;;;;;;;0.40;0.30;;;;;;;0.41;65.47;101776.75;5053650;28;20481;-71
2021/04/26 01:16:13;;;;;;;0.87;0.60;;;;;;;0.22;66.26;101779.19;5053685;28;20784;-70
2021/04/26 01:18:46;;;;;;;0.40;0.30;;;;;;;0.09;67.46;101771.19;5053712;28;20466;-71
2021/04/26 01:21:49;;;;;;;0.40;0.37;;;;;;;0.07;68.20;101772.38;5053457;28;20809;-71
2021/04/26 01:24:52;;;;;;;0.60;0.60;;;;;;;0.15;68.27;101770.34;5053456;28;20470;-70
2021/04/26 01:27:36;;;;;;;0.40;0.30;;;;;;;0.23;69.02;101777.34;5053446;28;20951;-71
2021/04/26 01:30:10;;;;;;;0.40;0.30;;;;;;;0.30;68.96;101766.69;5053266;28;20452;-70
2021/04/26 01:32:41;;;;;;;1.43;1.33;;;;;;;0.19;67.82;101768.13;5053369;28;20458;-71
2021/04/26 01:35:10;;;;;;;2.63;0.90;;;;;;;0.09;68.20;101765.84;5053569;28;20434;-70
2021/04/26 01:37:38;;;;;;;0.57;0.40;;;;;;;0.06;69.00;101758.25;5053295;28;20481;-70
2021/04/26 01:40:07;;;;;;;0.50;0.40;;;;;;;0.02;68.83;101758.84;5053244;28;20449;-70
2021/04/26 01:42:36;;;;;;;0.50;0.40;;;;;;;0.01;68.47;101758.03;5052919;28;21044;-71
2021/04/26 01:45:04;;;;;;;0.40;0.30;;;;;;;0.02;68.53;101753.53;5053272;28;20845;-71
2021/04/26 01:47:31;;;;;;;2.87;0.53;;;;;;;-0.06;68.65;101747.38;5053321;28;20435;-70
2021/04/26 01:50:00;;;;;;;0.40;0.30;;;;;;;0.01;68.73;101747.38;5053156;28;20442;-70
2021/04/26 01:52:27;;;;;;;0.80;0.60;;;;;;;0.08;68.45;101742.06;5053100;28;20458;-70
2021/04/26 01:54:54;;;;;;;0.40;0.40;;;;;;;0.09;70.62;101749.88;5053523;28;20811;-71
2021/04/26 01:57:21;;;;;;;0.40;0.30;;;;;;;0.07;71.95;101738.59;5053084;28;20569;-71
2021/04/26 01:59:48;;;;;;;0.40;0.40;;;;;;;0.08;70.84;101736.72;5053520;28;20971;-70
2021/04/26 02:02:16;;;;;;;0.40;0.40;;;;;;;0.13;70.49;101739.59;5057318;28;20947;-71
2021/04/26 02:04:43;;;;;;;0.40;0.30;;;;;;;-0.03;69.50;101740.81;5057532;28;20439;-71
2021/04/26 02:07:12;;;;;;;1.03;0.50;;;;;;;-0.06;69.98;101735.91;5057404;28;20441;-71
2021/04/26 02:09:39;;;;;;;0.40;0.40;;;;;;;-0.17;69.91;101739.97;5057300;28;20453;-71
2021/04/26 02:12:07;;;;;;;0.40;0.30;;;;;;;-0.12;70.87;101742.03;5057395;28;20485;-71
2021/04/26 02:14:33;;;;;;;0.50;0.40;;;;;;;-0.23;71.02;101739.94;5057168;28;20449;-70
2021/04/26 02:17:00;;;;;;;0.40;0.30;;;;;;;-0.24;72.35;101743.63;5056921;28;20458;-70
2021/04/26 02:19:26;;;;;;;0.40;0.30;;;;;;;-0.28;72.34;101738.72;5056964;28;20449;-70
2021/04/26 02:21:52;;;;;;;0.40;0.30;;;;;;;-0.30;71.90;101740.75;5056973;28;20449;-70
2021/04/26 02:24:18;;;;;;;0.40;0.30;;;;;;;-0.38;70.85;101738.28;5056742;28;20465;-70
2021/04/26 02:26:44;;;;;;;0.40;0.40;;;;;;;-0.34;72.59;101739.53;5056393;28;21016;-70
2021/04/26 02:29:10;;;;;;;0.40;0.30;;;;;;;-0.25;72.83;101742.81;5056921;28;20528;-70
2021/04/26 02:31:39;;;;;;;2.73;1.00;;;;;;;-0.16;72.35;101736.28;5056557;28;20511;-71
2021/04/26 02:34:11;;;;;;;0.40;0.30;;;;;;;-0.14;71.79;101738.75;5056578;28;20511;-71
2021/04/26 02:36:44;;;;;;;4.63;0.47;;;;;;;-0.09;72.34;101730.97;5056595;28;20427;-71
2021/04/26 02:39:13;;;;;;;0.40;0.30;;;;;;;-0.04;72.30;101731.19;5056315;28;20979;-71
2021/04/26 02:41:42;;;;;;;0.50;0.40;;;;;;;-0.09;72.75;101741.63;5056672;28;20442;-71
2021/04/26 02:44:16;;;;;;;0.40;0.30;;;;;;;-0.11;73.18;101735.69;5056719;28;20454;-71
2021/04/26 02:46:43;;;;;;;0.40;0.30;;;;;;;-0.08;72.31;101732.63;5056669;28;20897;-71
2021/04/26 02:49:10;;;;;;;0.80;0.67;;;;;;;-0.11;71.60;101738.34;5056495;28;20434;-71
2021/04/26 02:51:38;;;;;;;0.40;0.40;;;;;;;-0.09;71.37;101746.94;5056409;28;20442;-71
2021/04/26 02:54:06;;;;;;;3.57;0.97;;;;;;;-0.05;71.53;101734.88;5056474;28;20461;-71
2021/04/26 02:56:35;;;;;;;0.50;0.40;;;;;;;-0.04;72.11;101733.88;5056284;28;20442;-71
2021/04/26 02:59:05;;;;;;;0.63;0.60;;;;;;;-0.19;71.08;101727.88;5056176;28;20516;-71
2021/04/26 03:01:31;;;;;;;0.53;0.53;;;;;;;-0.21;70.41;101732.59;5056059;28;20435;-71
2021/04/26 03:03:58;;;;;;;1.37;1.03;;;;;;;-0.38;70.66;101732.94;5080434;22;20516;-65
2021/04/26 03:06:25;;;;;;;0.70;0.53;;;;;;;-0.39;70.86;101738.47;5056338;28;20434;-65
2021/04/26 03:08:51;;;;;;;0.40;0.40;;;;;;;-0.43;72.28;101730.06;5055623;28;20982;-67
2021/04/26 03:11:19;;;;;;;0.40;0.30;;;;;;;-0.59;71.60;101725.09;5055658;28;20524;-68
2021/04/26 03:13:45;;;;;;;0.60;0.60;;;;;;;-0.65;71.51;101725.91;5054779;28;20543;-68
2021/04/26 03:16:12;;;;;;;0.87;0.80;;;;;;;-0.65;71.37;101724.06;5055356;28;20496;-68
2021/04/26 03:18:39;;;;;;;0.40;0.30;;;;;;;-0.61;71.28;101727.16;5055499;28;20490;-68
2021/04/26 03:21:08;;;;;;;0.73;0.63;;;;;;;-0.77;71.44;101734.44;5055762;28;20438;-68
2021/04/26 03:23:35;;;;;;;0.40;0.30;;;;;;;-0.78;73.28;101726.66;5055553;28;20454;-68
2021/04/26 03:26:04;;;;;;;0.40;0.30;;;;;;;-0.79;72.46;101733.81;5055892;28;20442;-68
2021/04/26 03:28:32;;;;;;;0.40;0.30;;;;;;;-0.84;72.67;101733.59;5055572;28;20443;-68
2021/04/26 03:31:00;;;;;;;0.40;0.30;;;;;;;-0.83;72.07;101739.72;5055462;28;20957;-67
2021/04/26 03:33:29;;;;;;;0.40;0.30;;;;;;;-0.90;72.20;101731.69;5054979;28;20987;-67
2021/04/26 03:35:56;;;;;;;0.60;0.40;;;;;;;-0.93;72.01;101729.47;5055491;28;20443;-68
2021/04/26 03:38:22;;;;;;;1.87;0.77;;;;;;;-0.98;72.89;101731.03;5055370;28;20485;-68
2021/04/26 03:40:49;;;;;;;1.35;0.93;;;;;;;-1.00;72.16;101730.44;5055568;28;20487;-68
2021/04/26 03:43:17;;;;;;;0.40;0.30;;;;;;;-1.04;72.65;101728.16;5055017;28;20735;-67
2021/04/26 03:45:43;;;;;;;0.53;0.53;;;;;;;-1.00;73.00;101733.09;5055300;28;20449;-68
2021/04/26 03:48:09;;;;;;;1.73;0.63;;;;;;;-0.91;72.34;101735.38;5055073;28;20954;-68
2021/04/26 03:50:36;;;;;;;0.40;0.30;;;;;;;-0.89;74.00;101733.34;5055204;28;20461;-68
2021/04/26 03:53:03;;;;;;;0.43;0.43;;;;;;;-0.86;74.05;101740.94;5055061;28;20227;-68
2021/04/26 03:55:28;;;;;;;0.40;0.30;;;;;;;-0.79;74.68;101736.47;5055083;28;20448;-67
2021/04/26 03:57:55;;;;;;;0.40;0.30;;;;;;;-0.72;74.57;101741.00;5055063;28;20478;-68
2021/04/26 04:00:22;;;;;;;0.40;0.30;;;;;;;-0.67;73.64;101743.88;5054698;28;20450;-67
2021/04/26 04:02:49;;;;;;;0.40;0.30;;;;;;;-0.53;72.66;101735.78;5054666;28;20489;-68
2021/04/26 04:05:16;;;;;;;0.50;0.40;;;;;;;-0.52;73.29;101737.41;5054911;28;20430;-68
2021/04/26 04:07:43;;;;;;;0.40;0.30;;;;;;;-0.53;73.39;101734.97;5054842;28;20209;-68
2021/04/26 04:10:11;;;;;;;0.40;0.30;;;;;;;-0.49;73.00;101730.03;5054531;28;20943;-68
2021/04/26 04:12:37;;;;;;;0.50;0.40;;;;;;;-0.42;72.89;101737.03;5054720;28;20446;-67
2021/04/26 04:15:05;;;;;;;0.73;0.40;;;;;;;-0.54;73.11;101733.28;5054869;28;20438;-68
2021/04/26 04:17:31;;;;;;;0.70;0.50;;;;;;;-0.64;74.22;101733.66;5054376;28;21030;-68
2021/04/26 04:19:57;;;;;;;0.40;0.30;;;;;;;-0.53;73.65;101735.78;5054776;28;20442;-68
2021/04/26 04:22:23;;;;;;;0.40;0.30;;;;;;;-0.58;71.45;101738.19;5053637;28;20446;-67
2021/04/26 04:24:50;;;;;;;0.40;0.40;;;;;;;-0.67;70.82;101733.25;5054273;28;20504;-67
2021/04/26 04:27:16;;;;;;;0.40;0.30;;;;;;;-0.79;70.57;101733.81;5054171;28;20953;-68
2021/04/26 04:29:42;;;;;;;1.20;0.67;;;;;;;-0.70;70.83;101731.81;5054324;28;20442;-68
2021/04/26 04:32:08;;;;;;;0.60;0.47;;;;;;;-0.60;69.86;101729.59;5054893;28;20491;-68
2021/04/26 04:34:36;;;;;;;0.40;0.30;;;;;;;-0.62;70.39;101736.97;5054353;28;20470;-67
2021/04/26 04:37:02;;;;;;;0.73;0.63;;;;;;;-0.60;71.11;101729.59;5054317;28;20445;-68
2021/04/26 04:39:28;;;;;;;0.40;0.30;;;;;;;-0.47;70.11;101723.50;5054255;28;20438;-68
2021/04/26 04:41:54;;;;;;;0.40;0.30;;;;;;;-0.40;70.79;101729.69;5053956;28;20486;-67
2021/04/26 04:44:21;;;;;;;2.40;0.60;;;;;;;-0.30;70.73;101738.09;5054205;28;20983;-68
2021/04/26 04:46:47;;;;;;;0.40;0.30;;;;;;;-0.31;70.30;101736.47;5053664;28;20466;-67
2021/04/26 04:49:13;;;;;;;0.40;0.30;;;;;;;-0.38;70.99;101732.94;5054057;28;20559;-67
2021/04/26 04:51:40;;;;;;;0.40;0.30;;;;;;;-0.31;71.81;101725.81;5054301;28;20803;-64
2021/04/26 04:54:06;;;;;;;0.40;0.30;;;;;;;-0.28;70.58;101729.91;5053920;28;20462;-69
2021/04/26 04:56:32;;;;;;;0.40;0.30;;;;;;;-0.12;72.19;101732.19;5053644;28;20446;-64
2021/04/26 04:58:59;;;;;;;0.40;0.30;;;;;;;0.08;71.63;101732.22;5053773;28;20466;-63
2021/04/26 05:01:25;;;;;;;1.80;1.13;;;;;;;0.32;70.27;101732.69;5053814;28;20446;-64
2021/04/26 05:03:51;;;;;;;0.63;0.60;;;;;;;0.47;69.28;101741.28;5053356;28;20561;-64
2021/04/26 05:06:17;;;;;;;1.53;1.00;;;;;;;0.60;68.44;101727.13;5053699;28;20442;-63
2021/04/26 05:08:43;;;;;;;7.70;0.60;;;;;;;0.73;67.46;101733.25;5053630;28;20896;-63
2021/04/26 05:11:09;;;;;;;0.40;0.30;;;;;;;0.88;66.90;101733.03;5053371;28;20936;-63
2021/04/26 05:13:35;;;;;;;0.40;0.30;;;;;;;0.96;66.69;101734.66;5053585;28;20473;-64
2021/04/26 05:16:01;;;;;;;0.40;0.30;;;;;;;1.02;66.65;101733.84;5053522;28;20810;-63
2021/04/26 05:18:27;;;;;;;0.90;0.70;;;;;;;1.08;66.62;101733.00;5053124;28;20949;-63
2021/04/26 05:20:53;;;;;;;0.40;0.30;;;;;;;1.14;66.67;101725.97;5053484;28;20452;-63
2021/04/26 05:23:19;;;;;;;0.50;0.50;;;;;;;1.21;65.97;101730.28;5053352;28;20470;-63
2021/04/26 05:25:49;;;;;;;1.47;0.83;;;;;;;1.34;65.77;101726.75;5053967;28;20449;-63
2021/04/26 05:28:15;;;;;;;0.40;0.40;;;;;;;1.42;65.75;101725.69;5053041;28;21065;-63
2021/04/26 05:30:41;;;;;;;0.50;0.40;;;;;;;1.50;65.60;101720.91;5053360;28;20446;-63
2021/04/26 05:33:08;;;;;;;0.80;0.60;;;;;;;1.63;65.43;101720.03;5053232;28;20454;-63
2021/04/26 05:35:34;;;;;;;0.40;0.30;;;;;;;1.73;65.27;101717.72;5053197;28;20525;-65
2021/04/26 05:38:08;;;;;;;0.40;0.30;;;;;;;1.86;64.67;101724.00;5053269;28;20939;-63
2021/04/26 05:40:34;;;;;;;0.40;0.30;;;;;;;1.97;63.99;101731.34;5053165;28;20426;-63
2021/04/26 05:43:00;;;;;;;0.40;0.30;;;;;;;2.04;64.14;101726.78;5053169;28;20465;-63
2021/04/26 05:45:26;;;;;;;0.83;0.40;;;;;;;2.16;64.43;101722.38;5053120;28;20943;-63
2021/04/26 05:47:52;;;;;;;0.50;0.50;;;;;;;2.21;64.23;101730.59;5053081;28;20485;-63
2021/04/26 05:50:19;;;;;;;0.50;0.50;;;;;;;2.36;64.11;101724.91;5053184;28;20927;-63
2021/04/26 05:52:45;;;;;;;0.40;0.30;;;;;;;2.46;63.62;101735.09;5053150;28;20496;-63
2021/04/26 05:55:11;;;;;;;0.40;0.30;;;;;;;2.61;64.44;101732.09;5053193;28;20446;-63
2021/04/26 05:57:37;;;;;;;0.40;0.40;;;;;;;2.69;64.31;101723.78;5053122;28;20449;-63
2021/04/26 06:00:05;;;;;;;0.40;0.30;;;;;;;2.83;63.69;101730.63;5053045;28;20947;-63
2021/04/26 06:02:31;;;;;;;0.70;0.70;;;;;;;2.89;63.94;101732.44;5052926;28;20495;-63
2021/04/26 06:04:57;;;;;;;0.40;0.30;;;;;;;2.96;63.30;101729.69;5052978;28;20847;-64
2021/04/26 06:07:23;;;;;;;1.00;0.40;;;;;;;3.14;63.35;101729.69;5052903;28;20491;-63
2021/04/26 06:09:49;;;;;;;0.40;0.40;;;;;;;3.32;63.49;101725.38;5052809;28;20446;-63
2021/04/26 06:12:15;;;;;;;4.20;0.50;;;;;;;3.44;63.26;101726.25;5053087;28;20536;-63
2021/04/26 06:14:41;;;;;;;0.60;0.50;;;;;;;3.47;63.30;101723.97;5052806;28;20512;-63
2021/04/26 06:17:07;;;;;;;0.40;0.40;;;;;;;3.67;63.14;101725.56;5052834;28;20442;-64
2021/04/26 06:19:33;;;;;;;0.40;0.30;;;;;;;3.85;62.43;101725.53;5052890;28;20813;-63
2021/04/26 06:21:59;;;;;;;0.40;0.30;;;;;;;3.95;61.40;101730.34;5052768;28;20442;-63
2021/04/26 06:24:26;;;;;;;0.40;0.40;;;;;;;4.10;62.44;101729.91;5052840;28;20983;-63
2021/04/26 06:26:52;;;;;;;0.40;0.30;;;;;;;4.13;61.82;101735.63;5052816;28;20442;-63
2021/04/26 06:29:18;;;;;;;0.40;0.30;;;;;;;4.30;61.50;101728.56;5052742;28;20897;-63
2021/04/26 06:31:44;;;;;;;0.40;0.30;;;;;;;4.47;61.29;101725.16;5052707;28;20847;-63
2021/04/26 06:34:09;;;;;;;0.40;0.30;;;;;;;4.58;61.59;101728.94;5052644;28;20462;-63
2021/04/26 06:36:35;;;;;;;1.00;0.40;;;;;;;4.69;60.57;101728.94;5052623;28;20457;-63
2021/04/26 06:39:01;;;;;;;0.40;0.30;;;;;;;4.80;60.77;101735.34;5052722;28;20555;-62
2021/04/26 06:41:28;;;;;;;0.40;0.30;;;;;;;4.90;60.76;101721.31;5052916;28;20456;-63
2021/04/26 06:43:54;;;;;;;0.40;0.30;;;;;;;4.97;59.89;101720.16;5052335;28;20461;-63
2021/04/26 06:46:20;;;;;;;0.60;0.60;;;;;;;5.02;59.43;101722.13;5053590;28;20491;-63
2021/04/26 06:48:46;;;;;;;0.40;0.30;;;;;;;5.14;58.95;101714.88;5056095;28;20481;-65
2021/04/26 06:51:12;;;;;;;0.40;0.30;;;;;;;5.25;59.06;101711.34;5056228;28;20442;-65
2021/04/26 06:53:38;;;;;;;0.73;0.73;;;;;;;5.37;59.17;101719.38;5056146;28;20497;-65
2021/04/26 06:56:05;;;;;;;0.40;0.30;;;;;;;5.45;58.50;101721.69;5055597;28;20442;-66
2021/04/26 06:58:31;;;;;;;0.40;0.30;;;;;;;5.54;58.16;101719.44;5056170;28;20438;-64
2021/04/26 07:00:57;;;;;;;0.50;0.40;;;;;;;5.61;58.49;101714.72;5056009;28;20492;-64
2021/04/26 07:03:23;;;;;;;0.40;0.30;;;;;;;5.77;58.22;101711.28;5055792;28;20470;-65
2021/04/26 07:05:49;;;;;;;0.40;0.30;;;;;;;5.89;56.96;101705.84;5055971;28;20549;-64
2021/04/26 07:08:15;;;;;;;0.40;0.30;;;;;;;5.86;56.16;101700.97;5050583;28;21009;-64
2021/04/26 07:10:41;;;;;;;0.40;0.30;;;;;;;5.90;54.97;101712.88;5035944;28;20453;-64
2021/04/26 07:13:07;;;;;;;0.40;0.30;;;;;;;5.86;54.62;101710.91;5035639;28;20463;-64
2021/04/26 07:15:34;;;;;;;0.40;0.30;;;;;;;5.90;54.86;101701.28;5035773;28;20823;-64
2021/04/26 07:18:00;;;;;;;0.40;0.30;;;;;;;5.91;55.23;101703.72;5035591;28;20443;-65
2021/04/26 07:20:26;;;;;;;0.40;0.30;;;;;;;6.01;55.02;101709.31;5047835;28;20470;-65
2021/04/26 07:22:51;;;;;;;0.50;0.30;;;;;;;6.09;54.19;101704.59;5055825;28;20462;-65
2021/04/26 07:25:18;;;;;;;0.40;0.30;;;;;;;6.13;54.45;101701.19;5055665;28;20813;-65
2021/04/26 07:27:44;;;;;;;0.40;0.40;;;;;;;6.22;54.47;101704.28;5055541;28;20507;-64
2021/04/26 07:30:11;;;;;;;0.50;0.30;;;;;;;6.30;54.54;101702.00;5055796;28;20442;-66
2021/04/26 07:32:40;;;;;;;0.47;0.43;;;;;;;6.41;53.46;101707.53;5055374;28;20946;-65
2021/04/26 07:35:10;;;;;;;0.50;0.30;;;;;;;6.53;52.50;101703.69;5055528;28;20442;-65
2021/04/26 07:37:36;;;;;;;0.50;0.30;;;;;;;6.63;51.68;101702.22;5055201;28;20939;-66
2021/04/26 07:40:03;;;;;;;0.40;0.30;;;;;;;6.57;50.81;101694.06;5055468;28;20480;-65
2021/04/26 07:42:29;;;;;;;0.50;0.30;;;;;;;6.62;48.73;101695.22;5055373;28;20465;-66
2021/04/26 07:44:55;;;;;;;0.40;0.33;;;;;;;6.70;48.25;101694.78;5055552;28;20820;-66
2021/04/26 07:47:21;;;;;;;0.60;0.40;;;;;;;6.74;47.49;101702.13;5055317;28;20442;-66
2021/04/26 07:49:48;;;;;;;0.40;0.30;;;;;;;6.77;48.01;101704.34;5055025;28;20486;-66
2021/04/26 07:52:14;;;;;;;0.40;0.30;;;;;;;6.82;47.90;101700.91;5055156;28;20453;-66
2021/04/26 07:54:39;;;;;;;1.27;0.40;;;;;;;6.90;47.32;101705.84;5054988;28;20458;-66
2021/04/26 07:57:06;;;;;;;0.50;0.40;;;;;;;6.91;47.46;101701.28;5054465;28;20442;-66
2021/04/26 07:59:32;;;;;;;0.40;0.30;;;;;;;7.00;46.41;101705.19;5054169;28;20449;-66
2021/04/26 08:01:58;;;;;;;0.40;0.30;;;;;;;7.06;45.99;101706.88;5055129;28;20451;-65
2021/04/26 08:04:24;;;;;;;0.50;0.40;;;;;;;7.07;45.34;101700.41;5054383;28;20556;-70
2021/04/26 08:06:51;;;;;;;0.40;0.30;;;;;;;7.08;46.92;101696.63;5054863;28;20446;-66
2021/04/26 08:09:17;;;;;;;0.40;0.33;;;;;;;7.08;47.28;101697.47;5054788;28;20547;-65
2021/04/26 08:11:43;;;;;;;0.40;0.30;;;;;;;7.18;46.97;101680.63;5055023;28;20446;-66
2021/04/26 08:14:09;;;;;;;0.40;0.30;;;;;;;7.24;44.53;101690.38;5054601;28;20458;-66
2021/04/26 08:16:35;;;;;;;1.13;0.60;;;;;;;7.28;43.97;101688.81;5054290;28;20446;-65
2021/04/26 08:19:01;;;;;;;0.40;0.30;;;;;;;7.19;43.47;101679.56;5054599;28;20434;-66
2021/04/26 08:21:27;;;;;;;0.67;0.33;;;;;;;7.25;44.75;101686.63;5054566;28;20438;-65
2021/04/26 08:23:56;;;;;;;0.53;0.30;;;;;;;7.13;44.71;101682.41;5054442;28;20520;-66
2021/04/26 08:26:22;;;;;;;0.50;0.40;;;;;;;7.20;43.96;101686.56;5054414;28;20452;-65
2021/04/26 08:28:48;;;;;;;0.40;0.30;;;;;;;7.32;46.55;101681.88;5054374;28;20510;-66
2021/04/26 08:31:14;;;;;;;0.40;0.30;;;;;;;7.42;44.87;101675.78;5054367;28;20469;-65
2021/04/26 08:33:40;;;;;;;0.50;0.40;;;;;;;7.52;45.05;101670.47;5054338;28;20462;-67
2021/04/26 08:36:07;;;;;;;0.60;0.50;;;;;;;7.59;43.62;101676.50;5054228;28;20862;-65
2021/04/26 08:38:33;;;;;;;0.40;0.30;;;;;;;7.69;43.45;101677.66;5054241;28;20434;-66
2021/04/26 08:41:00;;;;;;;1.13;0.53;;;;;;;7.71;43.63;101678.25;5054177;28;20500;-66
2021/04/26 08:43:26;;;;;;;0.53;0.40;;;;;;;7.68;43.22;101681.44;5054094;28;20462;-66
2021/04/26 08:45:52;;;;;;;0.50;0.30;;;;;;;7.77;43.87;101678.03;5054074;28;20806;-66
2021/04/26 08:48:19;;;;;;;0.50;0.33;;;;;;;7.81;43.25;101678.31;5053804;28;20486;-66
2021/04/26 08:50:45;;;;;;;0.40;0.40;;;;;;;7.88;43.25;101678.09;5053965;28;20438;-66
2021/04/26 08:53:11;;;;;;;0.40;0.30;;;;;;;7.76;42.61;101670.19;5052336;28;20469;-65
2021/04/26 08:55:39;;;;;;;0.70;0.63;;;;;;;7.90;43.02;101668.69;5033972;28;20450;-66
2021/04/26 08:58:06;;;;;;;0.40;0.40;;;;;;;8.02;43.24;101672.06;5034078;28;20443;-66
2021/04/26 09:00:32;;;;;;;0.50;0.30;;;;;;;8.07;42.37;101671.28;5033268;28;20972;-66
2021/04/26 09:02:59;;;;;;;0.40;0.30;;;;;;;8.04;42.83;101669.09;5033014;28;20490;-66
2021/04/26 09:05:28;;;;;;;0.40;0.30;;;;;;;8.15;43.49;101659.22;5033877;28;20454;-66
2021/04/26 09:07:55;;;;;;;0.70;0.50;;;;;;;8.33;44.22;101665.00;5033195;28;20450;-66
2021/04/26 09:10:44;;;;;;;0.40;0.30;;;;;;;8.54;42.92;101660.59;5033018;28;20971;-66
2021/04/26 09:13:28;;;;;;;0.40;0.30;;;;;;;8.68;42.18;101665.53;5033635;28;20522;-66
2021/04/26 09:15:56;;;;;;;0.40;0.30;;;;;;;8.87;40.97;101669.41;5033525;28;20438;-66
2021/04/26 09:18:44;;;;;;;0.60;0.50;;;;;;;8.97;40.38;101663.25;5033783;28;20852;-66
2021/04/26 09:21:19;;;;;;;0.60;0.40;;;;;;;9.02;40.36;101671.38;5034019;28;20423;-67
2021/04/26 09:23:46;;;;;;;0.50;0.40;;;;;;;9.32;40.89;101666.06;5033517;28;20524;-66
2021/04/26 09:26:27;;;;;;;2.30;0.30;;;;;;;9.47;39.99;101667.19;5057872;22;20514;-71
2021/04/26 09:29:22;;;;;;;0.40;0.30;;;;;;;9.47;40.42;101659.88;5033174;28;20490;-71
2021/04/26 09:32:04;;;;;;;0.90;0.60;;;;;;;9.67;39.88;101666.44;4997138;28;20485;-71
2021/04/26 09:34:35;;;;;;;0.50;0.30;;;;;;;9.85;39.65;101655.91;5033308;28;20443;-72
2021/04/26 09:37:09;;;;;;;0.50;0.40;;;;;;;10.11;40.44;101655.91;5033272;28;20467;-72
2021/04/26 09:39:37;;;;;;;0.70;0.33;;;;;;;9.99;40.67;101658.06;5033177;28;20430;-71
2021/04/26 09:42:03;;;;;;;0.63;0.63;;;;;;;9.96;38.74;101659.44;5033240;28;20496;-72
2021/04/26 09:44:30;;;;;;;0.73;0.50;;;;;;;9.81;38.91;101656.72;5033197;28;20496;-71
2021/04/26 09:46:56;;;;;;;0.50;0.30;;;;;;;9.88;37.78;101645.63;5033178;28;20467;-71
2021/04/26 09:49:24;;;;;;;0.50;0.40;;;;;;;9.96;37.27;101655.91;5033134;28;20505;-72
2021/04/26 09:51:53;;;;;;;0.80;0.53;;;;;;;10.11;37.71;101648.59;5033349;28;20462;-71
2021/04/26 09:54:33;;;;;;;0.53;0.40;;;;;;;9.93;38.55;101651.03;5033108;28;20608;-71
2021/04/26 09:57:01;;;;;;;0.50;0.30;;;;;;;9.88;38.26;101637.50;5033202;28;20463;-72
2021/04/26 09:59:27;;;;;;;0.43;0.30;;;;;;;10.20;39.07;101645.34;5033063;28;20470;-72
2021/04/26 10:01:54;;;;;;;0.40;0.30;;;;;;;10.50;39.82;101647.25;5032972;28;20435;-72
2021/04/26 10:04:21;;;;;;;0.50;0.40;;;;;;;10.71;39.25;101643.38;5032914;28;20948;-71
2021/04/26 10:06:47;;;;;;;7.33;1.80;;;;;;;10.91;38.25;101647.91;5032924;28;20478;-69
2021/04/26 10:09:13;;;;;;;0.50;0.40;;;;;;;10.84;38.31;101648.19;5033039;28;20487;-71
2021/04/26 10:11:39;;;;;;;0.50;0.40;;;;;;;10.46;39.09;101644.25;5032633;28;20470;-71
2021/04/26 10:14:07;;;;;;;2.00;0.40;;;;;;;10.67;39.96;101647.75;5032594;28;20823;-71
2021/04/26 10:16:38;;;;;;;0.53;0.40;;;;;;;10.83;40.25;101643.88;5032876;28;20469;-70
2021/04/26 10:19:06;;;;;;;0.67;0.40;;;;;;;11.11;39.76;101645.13;5033007;28;20423;-70
2021/04/26 10:21:34;;;;;;;0.40;0.30;;;;;;;11.03;38.76;101643.00;5034501;28;20453;-72
2021/04/26 10:24:14;;;;;;;0.40;0.30;;;;;;;11.20;38.71;101639.09;5036949;28;20865;-71
2021/04/26 10:26:42;;;;;;;0.50;0.50;;;;;;;11.45;38.67;101635.44;5036831;28;20474;-71
2021/04/26 10:29:10;;;;;;;1.43;0.40;;;;;;;11.63;39.13;101635.59;5036678;28;20863;-71
2021/04/26 10:32:13;;;;;;;0.80;0.60;;;;;;;11.15;37.82;101631.81;5036951;28;20449;-70
2021/04/26 10:35:09;;;;;;;0.40;0.30;;;;;;;11.09;38.06;101616.66;4995233;28;20945;-72
2021/04/26 10:37:35;;;;;;;0.40;0.30;;;;;;;11.33;38.93;101617.63;4995432;28;20445;-71
2021/04/26 10:40:05;;;;;;;0.40;0.30;;;;;;;11.24;38.26;101613.84;5022285;28;21023;-71
2021/04/26 10:42:32;;;;;;;0.67;0.67;;;;;;;11.48;39.00;101613.19;5036476;28;20497;-71
2021/04/26 10:44:58;;;;;;;0.70;0.30;;;;;;;11.57;36.79;101606.88;5036361;28;20442;-71
2021/04/26 10:47:31;;;;;;;1.00;0.40;;;;;;;11.75;37.35;101604.59;5036316;28;20450;-71
2021/04/26 10:50:33;;;;;;;0.47;0.30;;;;;;;11.15;35.66;101609.31;5036274;28;20529;-70
2021/04/26 10:53:01;;;;;;;0.50;0.37;;;;;;;10.98;35.58;101606.94;5035663;28;20466;-71
2021/04/26 10:55:46;;;;;;;0.57;0.40;;;;;;;11.03;35.60;101602.34;5036174;28;20466;-71
2021/04/26 10:58:36;;;;;;;0.50;0.40;;;;;;;10.82;35.48;101598.91;5036240;28;20933;-71
2021/04/26 11:01:03;;;;;;;0.40;0.30;;;;;;;11.18;36.25;101603.34;5035083;28;20459;-71
2021/04/26 11:03:36;;;;;;;6.13;0.50;;;;;;;11.40;37.25;101598.31;5035772;28;20804;-71
2021/04/26 11:06:12;;;;;;;0.87;0.40;;;;;;;11.08;36.02;101598.78;5035312;28;20501;-71
2021/04/26 11:08:41;;;;;;;0.50;0.40;;;;;;;10.89;36.40;101589.66;5035552;28;20478;-69
2021/04/26 11:11:11;;;;;;;0.87;0.40;;;;;;;10.28;37.23;101588.78;5035115;28;20820;-69
2021/04/26 11:13:40;;;;;;;0.50;0.40;;;;;;;10.44;37.34;101589.53;5034806;28;20908;-70
2021/04/26 11:16:08;;;;;;;0.70;0.40;;;;;;;10.26;37.46;101580.09;5035604;28;20462;-70
2021/04/26 11:18:36;;;;;;;1.13;0.40;;;;;;;10.30;37.73;101586.59;5035198;28;20966;-70
2021/04/26 11:21:03;;;;;;;0.50;0.30;;;;;;;10.41;37.94;101581.16;5035273;28;20807;-71
2021/04/26 11:23:47;;;;;;;0.60;0.30;;;;;;;10.78;37.75;101589.69;5035457;28;20443;-71
2021/04/26 11:26:15;;;;;;;0.40;0.30;;;;;;;11.36;37.66;101572.84;5035433;28;20536;-70
2021/04/26 11:29:04;;;;;;;0.47;0.37;;;;;;;12.02;37.16;101575.06;5035553;28;20489;-70
2021/04/26 11:32:02;;;;;;;0.40;0.30;;;;;;;13.05;34.86;101570.03;5035287;28;20446;-70
2021/04/26 11:35:07;;;;;;;0.50;0.40;;;;;;;13.97;34.28;101560.47;5035462;28;20513;-70